createdAt,value
2019-05-26T00:00:26.167Z,4.17
2019-05-26T00:03:13.581Z,3.20
2019-05-26T00:05:42.320Z,3.33
2019-05-26T00:08:10.996Z,3.72
2019-05-26T00:10:39.784Z,3.72
2019-05-26T00:13:08.966Z,3.67
2019-05-26T00:15:37.715Z,3.95
2019-05-26T00:18:06.505Z,4.20
2019-05-26T00:20:37.164Z,4.17
2019-05-26T00:23:05.967Z,4.67
2019-05-26T00:25:34.729Z,4.40
2019-05-26T00:28:03.561Z,3.33
2019-05-26T00:30:32.333Z,4.20
2019-05-26T00:33:01.361Z,4.17
2019-05-26T00:35:30.102Z,4.78
2019-05-26T00:37:58.863Z,4.55
2019-05-26T00:40:27.814Z,4.95
2019-05-26T00:42:56.941Z,5.10
2019-05-26T00:45:25.692Z,4.62
2019-05-26T00:47:54.482Z,4.47
2019-05-26T00:50:24.693Z,5.87
2019-05-26T00:52:56.503Z,5.40
2019-05-26T00:55:23.922Z,5.33
2019-05-26T00:57:52.700Z,4.65
2019-05-26T01:00:40.794Z,5.92
2019-05-26T01:03:11.186Z,5.47
2019-05-26T01:05:40.339Z,5.17
2019-05-26T01:08:09.823Z,5.60
2019-05-26T01:10:38.925Z,5.72
2019-05-26T01:13:11.676Z,5.25
2019-05-26T01:15:40.824Z,5.12
2019-05-26T01:18:09.927Z,6.20
2019-05-26T01:20:39.299Z,5.97
2019-05-26T01:23:10.980Z,6.25
2019-05-26T01:25:43.436Z,6.22
2019-05-26T01:28:12.562Z,5.80
2019-05-26T01:30:56.394Z,6.42
2019-05-26T01:33:34.607Z,6.83
2019-05-26T01:36:33.179Z,6.47
2019-05-26T01:39:11.417Z,7.12
2019-05-26T01:41:40.224Z,6.58
2019-05-26T01:44:18.408Z,7.08
2019-05-26T01:46:47.591Z,6.75
2019-05-26T01:49:20.354Z,6.70
2019-05-26T01:51:49.064Z,6.90
2019-05-26T01:54:31.779Z,6.67
2019-05-26T01:57:00.902Z,7.40
2019-05-26T01:59:30.546Z,7.30
2019-05-26T02:01:59.633Z,7.42
2019-05-26T02:04:28.386Z,7.25
2019-05-26T02:06:57.475Z,8.03
2019-05-26T02:09:26.573Z,7.95
2019-05-26T02:11:55.667Z,7.08
2019-05-26T02:14:24.675Z,7.55
2019-05-26T02:17:05.991Z,6.92
2019-05-26T02:19:34.733Z,6.80
2019-05-26T02:22:15.479Z,7.12
2019-05-26T02:24:44.291Z,7.75
2019-05-26T02:27:24.311Z,7.53
2019-05-26T02:29:52.943Z,7.50
2019-05-26T02:32:21.665Z,7.25
2019-05-26T02:34:50.420Z,7.40
2019-05-26T02:37:19.228Z,7.80
2019-05-26T02:39:47.909Z,7.37
2019-05-26T02:42:16.708Z,8.18
2019-05-26T02:44:50.616Z,8.45
2019-05-26T02:47:19.738Z,9.18
2019-05-26T02:49:48.804Z,8.05
2019-05-26T02:52:17.919Z,8.65
2019-05-26T02:54:46.602Z,8.73
2019-05-26T02:57:16.236Z,8.93
2019-05-26T02:59:45.411Z,8.80
2019-05-26T03:02:16.516Z,8.53
2019-05-26T03:04:45.662Z,8.50
2019-05-26T03:07:15.274Z,8.88
2019-05-26T03:09:46.636Z,9.93
2019-05-26T03:12:17.138Z,8.60
2019-05-26T03:14:47.801Z,8.58
2019-05-26T03:17:19.195Z,9.35
2019-05-26T03:19:51.345Z,9.43
2019-05-26T03:22:21.886Z,10.58
2019-05-26T03:24:53.507Z,9.88
2019-05-26T03:27:22.819Z,9.45
2019-05-26T03:29:52.835Z,9.93
2019-05-26T03:32:21.911Z,11.50
2019-05-26T03:34:50.596Z,11.18
2019-05-26T03:37:19.324Z,11.12
2019-05-26T03:39:48.045Z,11.97
2019-05-26T03:42:16.741Z,14.95
2019-05-26T03:44:45.798Z,15.63
2019-05-26T03:47:16.877Z,16.42
2019-05-26T03:49:45.183Z,16.95
2019-05-26T03:52:13.975Z,16.35
2019-05-26T03:54:42.607Z,16.32
2019-05-26T03:57:11.701Z,17.57
2019-05-26T03:59:40.433Z,17.60
2019-05-26T04:02:09.187Z,17.92
2019-05-26T04:04:37.838Z,19.82
2019-05-26T04:07:13.926Z,18.90
2019-05-26T04:10:02.673Z,19.48
2019-05-26T04:12:13.393Z,20.92
2019-05-26T04:14:42.472Z,21.00
2019-05-26T04:17:11.663Z,20.62
2019-05-26T04:19:40.857Z,21.37
2019-05-26T04:22:13.700Z,20.77
2019-05-26T04:27:10.835Z,20.95
2019-05-26T04:29:40.839Z,20.10
2019-05-26T04:32:09.447Z,21.33
2019-05-26T04:34:50.511Z,21.05
2019-05-26T04:37:19.610Z,20.75
2019-05-26T04:39:48.395Z,20.10
2019-05-26T04:42:21.591Z,19.37
2019-05-26T04:44:50.701Z,20.02
2019-05-26T04:47:23.270Z,19.17
2019-05-26T04:49:52.263Z,18.37
2019-05-26T04:52:21.375Z,18.90
2019-05-26T04:54:49.982Z,18.80
2019-05-26T04:57:23.807Z,18.80
2019-05-26T04:59:52.963Z,18.82
2019-05-26T05:02:21.854Z,20.32
2019-05-26T05:04:50.476Z,20.68
2019-05-26T05:07:19.202Z,19.62
2019-05-26T05:09:47.957Z,22.45
2019-05-26T05:12:16.619Z,22.37
2019-05-26T05:14:45.615Z,21.75
2019-05-26T05:17:34.269Z,20.70
2019-05-26T05:20:10.617Z,20.70
2019-05-26T05:22:39.279Z,20.43
2019-05-26T05:25:14.302Z,20.57
2019-05-26T05:27:39.108Z,21.35
2019-05-26T05:30:09.171Z,22.17
2019-05-26T05:32:38.514Z,21.90
2019-05-26T05:35:11.648Z,22.15
2019-05-26T05:37:40.445Z,21.35
2019-05-26T05:40:19.270Z,22.82
2019-05-26T05:42:48.292Z,22.50
2019-05-26T05:45:17.112Z,22.65
2019-05-26T05:47:45.714Z,22.02
2019-05-26T05:50:17.034Z,23.20
2019-05-26T05:52:46.126Z,22.27
2019-05-26T05:55:15.220Z,23.32
2019-05-26T05:57:44.321Z,21.85
2019-05-26T06:00:14.877Z,22.93
2019-05-26T06:02:44.769Z,20.95
2019-05-26T06:05:13.967Z,22.45
2019-05-26T06:07:43.197Z,21.62
2019-05-26T06:10:12.200Z,20.95
2019-05-26T06:12:40.964Z,22.40
2019-05-26T06:15:12.484Z,22.07
2019-05-26T06:17:41.689Z,19.47
2019-05-26T06:20:18.848Z,21.05
2019-05-26T06:22:47.597Z,21.17
2019-05-26T06:25:32.131Z,20.25
2019-05-26T06:28:01.455Z,19.60
2019-05-26T06:30:31.216Z,21.80
2019-05-26T06:32:59.893Z,20.45
2019-05-26T06:35:45.221Z,20.10
2019-05-26T06:38:13.921Z,19.02
2019-05-26T06:40:47.126Z,19.98
2019-05-26T06:43:39.473Z,19.15
2019-05-26T06:46:08.649Z,19.70
2019-05-26T06:48:37.430Z,19.12
2019-05-26T06:51:06.222Z,17.27
2019-05-26T06:53:37.370Z,18.35
2019-05-26T06:56:15.355Z,17.42
2019-05-26T06:58:53.630Z,17.20
2019-05-26T07:01:37.269Z,17.12
2019-05-26T07:04:06.022Z,17.42
2019-05-26T07:06:34.817Z,17.77
2019-05-26T07:09:05.104Z,17.07
2019-05-26T07:11:50.140Z,15.78
2019-05-26T07:14:12.164Z,16.97
2019-05-26T07:16:40.864Z,15.68
2019-05-26T07:19:09.546Z,15.13
2019-05-26T07:21:38.364Z,17.55
2019-05-26T07:24:07.041Z,16.45
2019-05-26T07:26:45.769Z,17.57
2019-05-26T07:29:16.535Z,16.65
2019-05-26T07:32:07.583Z,18.40
2019-05-26T07:34:36.291Z,17.77
2019-05-26T07:37:05.080Z,15.75
2019-05-26T07:39:35.828Z,17.57
2019-05-26T07:42:10.408Z,16.85
2019-05-26T07:44:35.101Z,17.60
2019-05-26T07:47:03.950Z,17.98
2019-05-26T07:49:33.735Z,18.60
2019-05-26T07:52:02.478Z,17.62
2019-05-26T07:54:31.404Z,18.95
2019-05-26T07:57:00.195Z,19.10
2019-05-26T07:59:29.359Z,20.45
2019-05-26T08:04:34.959Z,19.55
2019-05-26T08:07:03.760Z,18.15
2019-05-26T08:09:32.396Z,18.70
2019-05-26T08:12:01.063Z,19.82
2019-05-26T08:14:29.764Z,19.02
2019-05-26T08:16:58.403Z,18.65
2019-05-26T08:19:27.998Z,20.08
2019-05-26T08:21:56.639Z,21.02
2019-05-26T08:24:25.281Z,19.17
2019-05-26T08:26:54.171Z,18.10
2019-05-26T08:29:22.865Z,19.35
2019-05-26T08:31:51.861Z,21.20
2019-05-26T08:34:20.507Z,20.65
2019-05-26T08:36:49.094Z,19.35
2019-05-26T08:39:18.191Z,18.70
2019-05-26T08:41:47.185Z,19.42
2019-05-26T08:44:15.814Z,20.32
2019-05-26T08:46:44.791Z,20.72
2019-05-26T08:49:13.598Z,20.37
2019-05-26T08:51:42.271Z,20.55
2019-05-26T08:54:11.426Z,20.80
2019-05-26T08:56:40.079Z,20.97
2019-05-26T08:59:08.717Z,19.23
2019-05-26T09:01:37.379Z,18.67
2019-05-26T09:04:06.103Z,19.35
2019-05-26T09:06:35.651Z,19.70
2019-05-26T09:09:06.422Z,19.45
2019-05-26T09:11:35.086Z,17.62
2019-05-26T09:14:03.879Z,14.93
2019-05-26T09:16:32.534Z,14.23
2019-05-26T09:19:01.151Z,16.48
2019-05-26T09:21:29.827Z,14.03
2019-05-26T09:23:59.433Z,11.57
2019-05-26T09:26:28.062Z,16.60
2019-05-26T09:28:56.721Z,12.30
2019-05-26T09:31:25.348Z,13.70
2019-05-26T09:33:54.418Z,14.15
2019-05-26T09:36:23.447Z,15.40
2019-05-26T09:38:52.373Z,12.45
2019-05-26T09:41:21.078Z,13.32
2019-05-26T09:43:49.749Z,13.38
2019-05-26T09:46:18.730Z,15.08
2019-05-26T09:48:47.400Z,14.87
2019-05-26T09:51:16.402Z,15.40
2019-05-26T09:54:00.813Z,14.80
2019-05-26T09:56:17.366Z,15.05
2019-05-26T09:58:46.408Z,15.80
2019-05-26T10:01:15.060Z,16.95
2019-05-26T10:03:43.646Z,15.53
2019-05-26T10:06:12.275Z,17.35
2019-05-26T10:08:40.871Z,16.82
2019-05-26T10:11:09.511Z,15.83
2019-05-26T10:13:38.182Z,16.12
2019-05-26T10:16:07.735Z,16.27
2019-05-26T10:18:36.335Z,15.85
2019-05-26T10:21:05.407Z,13.65
2019-05-26T10:23:34.044Z,14.15
2019-05-26T10:26:02.680Z,11.93
2019-05-26T10:28:31.631Z,11.28
2019-05-26T10:31:00.273Z,10.72
2019-05-26T10:33:28.974Z,10.40
2019-05-26T10:35:57.566Z,11.50
2019-05-26T10:38:26.203Z,10.63
2019-05-26T10:40:56.943Z,10.82
2019-05-26T10:43:25.566Z,11.03
2019-05-26T10:45:54.198Z,11.33
2019-05-26T10:48:22.873Z,10.45
2019-05-26T10:50:51.922Z,11.70
2019-05-26T10:53:20.935Z,11.28
2019-05-26T10:55:49.558Z,11.78
2019-05-26T10:58:18.527Z,10.60
2019-05-26T11:00:47.586Z,10.20
2019-05-26T11:03:16.646Z,11.75
2019-05-26T11:05:45.388Z,11.03
2019-05-26T11:08:14.032Z,11.80
2019-05-26T11:10:42.927Z,10.53
2019-05-26T11:13:11.552Z,10.98
2019-05-26T11:15:40.287Z,12.58
2019-05-26T11:18:08.934Z,11.38
2019-05-26T11:20:37.579Z,10.82
2019-05-26T11:23:06.244Z,9.98
2019-05-26T11:25:35.016Z,10.25
2019-05-26T11:28:03.638Z,10.75
2019-05-26T11:30:32.340Z,10.50
2019-05-26T11:33:01.307Z,10.53
2019-05-26T11:35:29.984Z,10.70
2019-05-26T11:37:58.602Z,10.93
2019-05-26T11:40:28.054Z,10.80
2019-05-26T11:42:56.694Z,11.20
2019-05-26T11:45:25.758Z,11.18
2019-05-26T11:47:54.187Z,11.63
2019-05-26T11:50:22.960Z,11.40
2019-05-26T11:52:52.037Z,12.75
2019-05-26T11:55:21.119Z,10.50
2019-05-26T11:57:49.722Z,12.10
2019-05-26T12:00:20.050Z,10.28
2019-05-26T12:02:49.598Z,11.28
2019-05-26T12:05:18.366Z,11.18
2019-05-26T12:07:46.973Z,10.85
2019-05-26T12:10:16.377Z,11.38
2019-05-26T12:12:44.980Z,11.12
2019-05-26T12:15:14.851Z,10.58
2019-05-26T12:17:43.549Z,10.60
2019-05-26T12:20:13.618Z,10.63
2019-05-26T12:22:42.703Z,11.85
2019-05-26T12:25:11.939Z,10.18
2019-05-26T12:27:40.889Z,10.13
2019-05-26T12:30:11.083Z,11.28
2019-05-26T12:32:39.784Z,10.70
2019-05-26T12:35:08.952Z,10.00
2019-05-26T12:37:37.979Z,9.58
2019-05-26T12:40:07.654Z,9.38
2019-05-26T12:42:36.419Z,8.85
2019-05-26T12:45:09.090Z,11.38
2019-05-26T12:47:37.931Z,10.03
2019-05-26T12:50:07.774Z,9.58
2019-05-26T12:52:36.559Z,10.75
2019-05-26T12:55:09.272Z,9.33
2019-05-26T12:57:37.345Z,9.75
2019-05-26T13:00:08.692Z,10.38
2019-05-26T13:02:37.844Z,10.75
2019-05-26T13:05:08.172Z,10.28
2019-05-26T13:07:37.058Z,11.73
2019-05-26T13:10:11.416Z,11.57
2019-05-26T13:12:40.042Z,11.95
2019-05-26T13:15:11.607Z,11.25
2019-05-26T13:17:40.599Z,11.55
2019-05-26T13:20:11.427Z,10.85
2019-05-26T13:22:40.963Z,10.13
2019-05-26T13:25:11.587Z,9.70
2019-05-26T13:27:40.287Z,12.20
2019-05-26T13:30:11.551Z,11.30
2019-05-26T13:32:40.494Z,10.45
2019-05-26T13:35:09.672Z,10.88
2019-05-26T13:37:38.338Z,10.68
2019-05-26T13:40:09.610Z,9.10
2019-05-26T13:42:38.350Z,10.23
2019-05-26T13:45:21.668Z,9.13
2019-05-26T13:47:39.702Z,9.80
2019-05-26T13:50:08.887Z,10.43
2019-05-26T13:52:37.565Z,9.13
2019-05-26T13:55:08.865Z,10.95
2019-05-26T13:57:37.485Z,9.60
2019-05-26T14:00:08.920Z,10.15
2019-05-26T14:02:37.719Z,9.10
2019-05-26T14:05:07.961Z,9.40
2019-05-26T14:07:36.651Z,8.43
2019-05-26T14:10:05.698Z,9.25
2019-05-26T14:12:34.496Z,8.63
2019-05-26T14:15:04.119Z,8.70
2019-05-26T14:17:34.495Z,8.08
2019-05-26T14:20:06.352Z,8.63
2019-05-26T14:22:35.015Z,9.20
2019-05-26T14:25:04.997Z,9.15
2019-05-26T14:27:34.029Z,8.13
2019-05-26T14:30:02.974Z,8.50
2019-05-26T14:32:31.971Z,9.00
2019-05-26T14:35:00.635Z,9.80
2019-05-26T14:37:29.654Z,8.83
2019-05-26T14:39:58.246Z,9.33
2019-05-26T14:42:27.268Z,7.80
2019-05-26T14:44:56.256Z,6.95
2019-05-26T14:47:24.887Z,7.05
2019-05-26T14:49:53.591Z,7.35
2019-05-26T14:52:22.218Z,7.05
2019-05-26T14:54:50.814Z,7.45
2019-05-26T14:57:19.430Z,6.42
2019-05-26T14:59:48.431Z,6.08
2019-05-26T15:02:17.029Z,5.53
2019-05-26T15:04:46.042Z,5.33
2019-05-26T15:07:14.634Z,6.08
2019-05-26T15:09:43.330Z,7.30
2019-05-26T15:12:11.986Z,7.03
2019-05-26T15:14:40.655Z,7.60
2019-05-26T15:17:09.642Z,7.78
2019-05-26T15:19:38.246Z,7.25
2019-05-26T15:22:07.074Z,6.97
2019-05-26T15:24:36.015Z,8.15
2019-05-26T15:27:05.105Z,7.33
2019-05-26T15:29:34.125Z,7.28
2019-05-26T15:32:03.760Z,7.70
2019-05-26T15:34:32.689Z,7.80
2019-05-26T15:37:01.328Z,6.97
2019-05-26T15:39:29.966Z,6.87
2019-05-26T15:41:58.951Z,7.12
2019-05-26T15:44:27.583Z,6.97
2019-05-26T15:46:56.242Z,7.67
2019-05-26T15:49:24.885Z,5.10
2019-05-26T15:51:53.470Z,5.40
2019-05-26T15:54:21.850Z,6.00
2019-05-26T15:56:50.471Z,6.37
2019-05-26T15:59:18.756Z,4.60
2019-05-26T16:01:47.414Z,3.98
2019-05-26T16:04:15.702Z,3.65
2019-05-26T16:06:43.954Z,3.45
2019-05-26T16:09:12.275Z,2.20
2019-05-26T16:11:43.410Z,2.02
2019-05-26T16:14:11.160Z,1.70
2019-05-26T16:16:41.734Z,2.33
2019-05-26T16:19:10.351Z,1.85
2019-05-26T16:21:38.984Z,1.90
2019-05-26T16:24:07.922Z,1.85
2019-05-26T16:26:36.551Z,2.27
2019-05-26T16:29:05.784Z,1.62
2019-05-26T16:31:34.407Z,2.10
2019-05-26T16:34:04.356Z,1.70
2019-05-26T16:36:34.083Z,2.12
2019-05-26T16:39:02.744Z,1.80
2019-05-26T16:41:31.024Z,1.95
2019-05-26T16:44:00.139Z,1.82
2019-05-26T16:46:28.772Z,2.60
2019-05-26T16:48:57.364Z,2.20
2019-05-26T16:51:26.275Z,2.45
2019-05-26T16:53:55.320Z,2.22
2019-05-26T16:56:24.421Z,1.77
2019-05-26T16:58:52.687Z,1.95
2019-05-26T17:01:21.376Z,1.98
2019-05-26T17:03:49.972Z,1.85
2019-05-26T17:06:18.598Z,2.70
2019-05-26T17:08:47.199Z,2.30
2019-05-26T17:11:15.890Z,1.95
2019-05-26T17:13:44.816Z,1.70
2019-05-26T17:16:13.472Z,1.95
2019-05-26T17:18:42.119Z,2.02
2019-05-26T17:21:10.722Z,1.60
2019-05-26T17:23:39.486Z,2.02
2019-05-26T17:26:08.395Z,1.95
2019-05-26T17:28:37.019Z,1.90
2019-05-26T17:31:05.879Z,2.02
2019-05-26T17:33:34.566Z,1.57
2019-05-26T17:36:03.238Z,1.62
2019-05-26T17:38:32.015Z,1.80
2019-05-26T17:41:01.012Z,1.50
2019-05-26T17:43:30.016Z,2.00
2019-05-26T17:45:58.602Z,1.80
2019-05-26T17:48:27.832Z,2.17
2019-05-26T17:50:57.444Z,2.22
2019-05-26T17:53:25.694Z,2.10
2019-05-26T17:55:54.313Z,2.00
2019-05-26T17:58:23.310Z,2.37
2019-05-26T18:00:52.014Z,1.72
2019-05-26T18:03:20.631Z,2.00
2019-05-26T18:05:49.289Z,2.12
2019-05-26T18:08:18.130Z,2.27
2019-05-26T18:10:46.935Z,1.87
2019-05-26T18:13:15.603Z,1.90
2019-05-26T18:15:44.513Z,2.22
2019-05-26T18:18:13.224Z,1.80
2019-05-26T18:20:41.930Z,2.00
2019-05-26T18:23:10.826Z,2.45
2019-05-26T18:25:40.613Z,2.22
2019-05-26T18:28:09.225Z,1.85
2019-05-26T18:30:37.848Z,1.92
2019-05-26T18:33:06.606Z,2.52
2019-05-26T18:35:35.344Z,2.10
2019-05-26T18:38:03.711Z,2.58
2019-05-26T18:40:32.677Z,1.70
2019-05-26T18:43:01.439Z,1.98
2019-05-26T18:45:30.201Z,2.33
2019-05-26T18:48:02.793Z,2.40
2019-05-26T18:50:29.148Z,2.22
2019-05-26T18:52:57.852Z,1.90
2019-05-26T18:55:26.447Z,2.50
2019-05-26T18:57:55.069Z,2.15
2019-05-26T19:00:30.464Z,2.20
2019-05-26T19:02:54.173Z,2.22
2019-05-26T19:05:32.866Z,2.25
2019-05-26T19:07:52.366Z,2.05
2019-05-26T19:10:20.806Z,2.10
2019-05-26T19:12:49.393Z,2.25
2019-05-26T19:15:17.833Z,2.60
2019-05-26T19:17:46.387Z,2.50
2019-05-26T19:20:17.459Z,2.72
2019-05-26T19:22:45.834Z,2.30
2019-05-26T19:25:15.050Z,2.90
2019-05-26T19:27:43.323Z,3.08
2019-05-26T19:30:12.398Z,2.35
2019-05-26T19:32:40.752Z,2.85
2019-05-26T19:35:09.075Z,3.30
2019-05-26T19:37:37.447Z,2.60
2019-05-26T19:40:06.407Z,3.20
2019-05-26T19:42:34.667Z,3.47
2019-05-26T19:45:03.234Z,3.60
2019-05-26T19:47:32.506Z,3.12
2019-05-26T19:50:00.857Z,3.27
2019-05-26T19:52:29.175Z,3.87
2019-05-26T19:54:57.466Z,3.92
2019-05-26T19:57:25.734Z,4.62
2019-05-26T19:59:54.081Z,4.62
2019-05-26T20:02:23.609Z,5.05
2019-05-26T20:04:51.983Z,4.42
2019-05-26T20:07:21.079Z,4.65
2019-05-26T20:09:49.656Z,4.62
2019-05-26T20:12:18.647Z,5.37
2019-05-26T20:14:47.512Z,5.00
2019-05-26T20:17:16.205Z,4.90
2019-05-26T20:19:44.878Z,5.03
2019-05-26T20:22:13.579Z,5.28
2019-05-26T20:24:42.622Z,5.30
2019-05-26T20:27:10.947Z,4.97
2019-05-26T20:29:39.629Z,4.97
2019-05-26T20:32:07.891Z,5.33
2019-05-26T20:34:37.118Z,5.30
2019-05-26T20:37:05.895Z,4.90
2019-05-26T20:39:34.927Z,5.75
2019-05-26T20:42:03.757Z,5.67
2019-05-26T20:44:33.462Z,5.47
2019-05-26T20:47:02.096Z,5.35
2019-05-26T20:49:44.500Z,5.33
2019-05-26T20:52:00.952Z,5.62
2019-05-26T20:54:29.595Z,6.10
2019-05-26T20:56:58.594Z,5.53
2019-05-26T20:59:27.803Z,5.60
2019-05-26T21:01:56.389Z,4.85
2019-05-26T21:04:25.055Z,5.45
2019-05-26T21:06:54.022Z,4.75
2019-05-26T21:09:23.010Z,4.67
2019-05-26T21:11:52.443Z,4.78
2019-05-26T21:14:21.103Z,3.72
2019-05-26T21:16:49.700Z,4.05
2019-05-26T21:19:18.319Z,4.35
2019-05-26T21:21:46.906Z,4.97
2019-05-26T21:24:16.025Z,4.92
2019-05-26T21:26:44.679Z,5.42
2019-05-26T21:29:13.424Z,5.35
2019-05-26T21:31:42.130Z,5.50
2019-05-26T21:34:10.790Z,6.90
2019-05-26T21:36:39.427Z,6.45
2019-05-26T21:39:08.968Z,7.92
2019-05-26T21:41:37.959Z,8.88
2019-05-26T21:44:06.545Z,8.75
2019-05-26T21:46:35.858Z,8.33
2019-05-26T21:49:04.622Z,8.90
2019-05-26T21:51:33.255Z,9.10
2019-05-26T21:54:01.908Z,9.08
2019-05-26T21:56:30.495Z,8.73
2019-05-26T21:58:59.480Z,9.28
2019-05-26T22:01:28.666Z,9.53
2019-05-26T22:03:57.403Z,9.28
2019-05-26T22:06:26.031Z,8.83
2019-05-26T22:08:55.109Z,10.23
2019-05-26T22:11:23.898Z,9.85
2019-05-26T22:13:52.156Z,9.50
2019-05-26T22:16:20.954Z,10.13
2019-05-26T22:18:49.218Z,8.75
2019-05-26T22:21:17.520Z,8.80
2019-05-26T22:23:45.838Z,5.80
2019-05-26T22:26:14.521Z,4.53
2019-05-26T22:28:42.906Z,5.60
2019-05-26T22:31:11.479Z,5.50
2019-05-26T22:33:40.823Z,5.10
2019-05-26T22:36:09.439Z,5.10
2019-05-26T22:38:37.781Z,4.55
2019-05-26T22:41:06.062Z,4.90
2019-05-26T22:43:34.431Z,5.30
2019-05-26T22:46:02.724Z,4.37
2019-05-26T22:48:31.021Z,4.20
2019-05-26T22:50:59.314Z,4.20
2019-05-26T22:53:27.911Z,4.50
2019-05-26T22:55:56.198Z,4.12
2019-05-26T22:58:24.499Z,4.25
2019-05-26T23:00:53.080Z,3.75
2019-05-26T23:03:21.345Z,4.28
2019-05-26T23:05:50.018Z,4.00
2019-05-26T23:08:18.251Z,4.37
2019-05-26T23:10:46.547Z,4.33
2019-05-26T23:13:14.803Z,4.70
2019-05-26T23:15:43.634Z,4.90
2019-05-26T23:18:11.922Z,5.25
2019-05-26T23:20:40.210Z,4.97
2019-05-26T23:23:08.540Z,5.47
2019-05-26T23:25:36.894Z,5.05
2019-05-26T23:28:05.182Z,4.90
2019-05-26T23:30:33.546Z,5.12
2019-05-26T23:33:01.804Z,6.05
2019-05-26T23:35:30.521Z,5.42
2019-05-26T23:37:58.770Z,5.53
2019-05-26T23:40:27.070Z,6.03
2019-05-26T23:42:55.325Z,6.20
2019-05-26T23:45:23.634Z,6.53
2019-05-26T23:47:51.942Z,6.20
2019-05-26T23:50:20.243Z,6.95
2019-05-26T23:52:48.507Z,7.20
2019-05-26T23:55:16.880Z,7.62
2019-05-26T23:57:45.142Z,10.00
